Time,TemperatureF,DewpointF,PressureIn,WindDirection,WindDirectionDegrees,WindSpeedMPH,WindSpeedGustMPH,Humidity,HourlyPrecipIn,Conditions,Clouds,dailyrainin,SoftwareType,DateUTC
2013-10-25 00:22:00,35.0,-99.9,-100.00,North,-999,-999.0,-999.0,-999,0.00,,,-99.99,,2013-10-25 05:22:00,
2013-10-25 00:42:00,35.0,-99.9,-100.00,North,-999,-999.0,-999.0,-999,0.00,,,-99.99,,2013-10-25 05:42:00,
2013-10-25 02:21:00,33.0,-99.9,-100.00,North,-999,-999.0,-999.0,-999,0.00,,,-99.99,,2013-10-25 07:21:00,
2013-10-25 02:41:00,33.0,-99.9,-100.00,North,-999,-999.0,-999.0,-999,0.00,,,-99.99,,2013-10-25 07:41:00,
2013-10-25 03:41:00,32.0,-99.9,-100.00,North,-999,-999.0,-999.0,-999,0.00,,,-99.99,,2013-10-25 08:41:00,
2013-10-25 04:21:00,31.0,-99.9,-100.00,North,-999,-999.0,-999.0,-999,0.00,,,-99.99,,2013-10-25 09:21:00,
2013-10-25 05:11:00,33.0,-99.9,-100.00,North,-999,-999.0,-999.0,-999,0.00,,,-99.99,,2013-10-25 10:11:00,
2013-10-25 05:22:00,33.0,-99.9,-100.00,North,-999,-999.0,-999.0,-999,0.00,,,-99.99,,2013-10-25 10:22:00,
2013-10-25 05:42:00,31.0,-99.9,-100.00,North,-999,-999.0,-999.0,-999,0.00,,,-99.99,,2013-10-25 10:42:00,
2013-10-25 06:21:00,31.0,-99.9,-100.00,North,-999,-999.0,-999.0,-999,0.00,,,-99.99,,2013-10-25 11:21:00,
2013-10-25 06:41:00,30.0,-99.9,-100.00,North,-999,-999.0,-999.0,-999,0.00,,,-99.99,,2013-10-25 11:41:00,
2013-10-25 07:41:00,30.0,-99.9,-100.00,North,-999,-999.0,-999.0,-999,0.00,,,-99.99,,2013-10-25 12:41:00,
2013-10-25 10:21:00,40.0,29.0,-100.00,North,-999,-999.0,-999.0,63,0.00,,,-99.99,,2013-10-25 15:21:00,
2013-10-25 10:43:00,44.0,30.0,-100.00,North,-999,-999.0,-999.0,59,0.00,,,-99.99,,2013-10-25 15:43:00,
2013-10-25 11:23:00,47.0,28.0,-100.00,North,-999,-999.0,-999.0,47,0.00,,,-99.99,,2013-10-25 16:23:00,
2013-10-25 11:43:00,48.0,27.0,-100.00,North,-999,-999.0,-999.0,43,0.00,,,-99.99,,2013-10-25 16:43:00,
2013-10-25 12:22:00,51.0,26.0,-100.00,North,-999,-999.0,-999.0,38,0.00,,,-99.99,,2013-10-25 17:22:00,
2013-10-25 12:43:00,51.0,27.0,-100.00,North,-999,-999.0,-999.0,37,0.00,,,-99.99,,2013-10-25 17:43:00,
2013-10-25 13:21:00,53.0,28.0,-100.00,North,-999,-999.0,-999.0,37,0.00,,,-99.99,,2013-10-25 18:21:00,
2013-10-25 13:42:00,53.0,29.0,-100.00,North,-999,-999.0,-999.0,38,0.00,,,-99.99,,2013-10-25 18:42:00,
2013-10-25 14:22:00,54.0,28.0,-100.00,North,-999,-999.0,-999.0,37,0.00,,,-99.99,,2013-10-25 19:22:00,
2013-10-25 14:42:00,54.0,29.0,-100.00,North,-999,-999.0,-999.0,37,0.00,,,-99.99,,2013-10-25 19:42:00,
2013-10-25 15:22:00,55.0,29.0,-100.00,North,-999,-999.0,-999.0,35,0.00,,,-99.99,,2013-10-25 20:22:00,
2013-10-25 15:42:00,56.0,29.0,-100.00,North,-999,-999.0,-999.0,35,0.00,,,-99.99,,2013-10-25 20:42:00,
2013-10-25 16:21:00,57.0,30.0,-100.00,North,-999,-999.0,-999.0,35,0.00,,,-99.99,,2013-10-25 21:21:00,
2013-10-25 16:43:00,57.0,30.0,-100.00,North,-999,-999.0,-999.0,35,0.00,,,-99.99,,2013-10-25 21:43:00,
2013-10-25 17:23:00,56.0,30.0,-100.00,North,-999,-999.0,-999.0,36,0.00,,,-99.99,,2013-10-25 22:23:00,
2013-10-25 17:42:00,56.0,29.0,-100.00,North,-999,-999.0,-999.0,36,0.00,,,-99.99,,2013-10-25 22:42:00,
2013-10-25 18:22:00,54.0,29.0,-100.00,North,-999,-999.0,-999.0,37,0.00,,,-99.99,,2013-10-25 23:22:00,
2013-10-25 18:42:00,54.0,29.0,-100.00,North,-999,-999.0,-999.0,38,0.00,,,-99.99,,2013-10-25 23:42:00,
2013-10-25 23:24:00,49.0,28.0,-100.00,North,-999,-999.0,-999.0,43,0.00,,,-99.99,,2013-10-26 04:24:00,
2013-10-25 23:44:00,49.0,28.0,-100.00,North,-999,-999.0,-999.0,44,0.00,,,-99.99,,2013-10-26 04:44:00,